createdAt,value
2023-09-11T00:00:28.864Z,5.90
2023-09-11T00:01:01.607Z,5.70
2023-09-11T00:01:34.258Z,5.90
2023-09-11T00:02:06.938Z,5.60
2023-09-11T00:02:39.697Z,5.60
2023-09-11T00:03:12.535Z,5.70
2023-09-11T00:03:45.395Z,5.60
2023-09-11T00:04:18.162Z,5.30
2023-09-11T00:04:50.802Z,5.60
2023-09-11T00:05:23.548Z,6.00
2023-09-11T00:06:04.590Z,5.50
2023-09-11T00:06:28.340Z,5.70
2023-09-11T00:06:54.497Z,5.50
2023-09-11T00:07:27.229Z,6.00
2023-09-11T00:07:59.920Z,5.90
2023-09-11T00:08:32.801Z,5.60
2023-09-11T00:09:05.557Z,5.80
2023-09-11T00:09:38.227Z,5.70
2023-09-11T00:10:10.895Z,6.20
2023-09-11T00:10:43.584Z,6.10
2023-09-11T00:11:16.288Z,6.20
2023-09-11T00:11:49.019Z,5.90
2023-09-11T00:12:21.653Z,6.10
2023-09-11T00:12:54.329Z,6.00
2023-09-11T00:13:26.999Z,6.30
2023-09-11T00:13:59.667Z,6.10
2023-09-11T00:14:32.459Z,5.90
2023-09-11T00:15:05.103Z,5.80
2023-09-11T00:15:37.771Z,5.80
2023-09-11T00:16:10.476Z,5.50
2023-09-11T00:16:43.250Z,5.70
2023-09-11T00:17:15.978Z,5.60
2023-09-11T00:17:48.717Z,5.50
2023-09-11T00:18:21.461Z,5.70
2023-09-11T00:18:54.158Z,5.70
2023-09-11T00:19:26.864Z,5.50
2023-09-11T00:19:59.511Z,5.90
2023-09-11T00:20:32.198Z,5.60
2023-09-11T00:21:04.869Z,6.20
2023-09-11T00:21:37.547Z,5.70
2023-09-11T00:22:10.219Z,5.90
2023-09-11T00:22:42.883Z,5.80
2023-09-11T00:23:15.591Z,6.20
2023-09-11T00:23:48.273Z,5.90
2023-09-11T00:24:20.960Z,5.90
2023-09-11T00:24:53.636Z,6.10
2023-09-11T00:25:26.291Z,5.60
2023-09-11T00:25:58.969Z,6.30
2023-09-11T00:26:31.709Z,5.90
2023-09-11T00:27:04.353Z,5.90
2023-09-11T00:27:37.016Z,6.10
2023-09-11T00:28:09.688Z,6.10
2023-09-11T00:28:42.725Z,6.30
2023-09-11T00:29:09.025Z,6.40
2023-09-11T00:29:41.749Z,6.10
2023-09-11T00:30:14.414Z,6.50
2023-09-11T00:30:47.139Z,6.00
2023-09-11T00:31:19.842Z,5.70
2023-09-11T00:31:52.470Z,6.10
2023-09-11T00:32:25.214Z,5.80
2023-09-11T00:32:58.002Z,5.60
2023-09-11T00:33:30.738Z,5.70
2023-09-11T00:34:03.396Z,5.90
2023-09-11T00:34:36.121Z,5.70
2023-09-11T00:35:08.775Z,5.90
2023-09-11T00:35:41.506Z,6.00
2023-09-11T00:36:14.170Z,5.90
2023-09-11T00:36:46.873Z,5.70
2023-09-11T00:37:19.556Z,5.80
2023-09-11T00:37:52.252Z,5.80
2023-09-11T00:38:24.956Z,5.70
2023-09-11T00:38:57.674Z,5.80
2023-09-11T00:39:30.359Z,5.60
2023-09-11T00:40:03.025Z,5.80
2023-09-11T00:40:35.701Z,5.80
2023-09-11T00:41:08.370Z,6.20
2023-09-11T00:41:41.149Z,5.90
2023-09-11T00:42:13.905Z,6.30
2023-09-11T00:42:46.587Z,5.90
2023-09-11T00:43:19.254Z,5.70
2023-09-11T00:43:51.919Z,6.00
2023-09-11T00:44:24.695Z,6.00
2023-09-11T00:44:57.351Z,6.30
2023-09-11T00:45:32.746Z,6.00
2023-09-11T00:45:59.119Z,6.40
2023-09-11T00:46:31.872Z,5.80
2023-09-11T00:47:04.591Z,6.20
2023-09-11T00:47:37.411Z,5.90
2023-09-11T00:48:10.195Z,5.90
2023-09-11T00:48:43.228Z,6.20
2023-09-11T00:49:09.541Z,5.80
2023-09-11T00:49:42.227Z,5.90
2023-09-11T00:50:14.883Z,6.00
2023-09-11T00:50:47.593Z,6.20
2023-09-11T00:51:20.239Z,6.20
2023-09-11T00:51:52.925Z,6.20
2023-09-11T00:52:25.606Z,6.30
2023-09-11T00:52:58.297Z,5.70
2023-09-11T00:53:31.020Z,5.90
2023-09-11T00:54:03.660Z,5.90
2023-09-11T00:54:36.342Z,6.00
2023-09-11T00:55:09.025Z,5.80
2023-09-11T00:55:41.693Z,5.40
2023-09-11T00:56:14.360Z,5.90
2023-09-11T00:56:47.096Z,5.90
2023-09-11T00:57:19.777Z,6.00
2023-09-11T00:57:50.860Z,6.10
2023-09-11T00:58:23.530Z,6.30
2023-09-11T00:58:56.198Z,6.10
2023-09-11T00:59:28.926Z,5.40
2023-09-11T01:00:01.588Z,6.10
2023-09-11T01:00:34.398Z,5.80
2023-09-11T01:01:07.066Z,5.30
2023-09-11T01:01:39.752Z,6.10
2023-09-11T01:02:12.472Z,6.20
2023-09-11T01:02:45.218Z,6.00
2023-09-11T01:03:18.007Z,5.60
2023-09-11T01:03:50.713Z,6.00
2023-09-11T01:04:23.368Z,6.00
2023-09-11T01:04:56.057Z,5.90
2023-09-11T01:05:28.726Z,6.20
2023-09-11T01:06:01.396Z,5.70
2023-09-11T01:06:34.220Z,6.10
2023-09-11T01:07:06.873Z,5.90
2023-09-11T01:07:39.552Z,6.20
2023-09-11T01:08:12.220Z,6.00
2023-09-11T01:08:44.912Z,6.10
2023-09-11T01:09:17.579Z,6.00
2023-09-11T01:09:50.254Z,6.00
2023-09-11T01:10:22.942Z,5.60
2023-09-11T01:10:55.601Z,5.80
2023-09-11T01:11:28.315Z,5.90
2023-09-11T01:12:01.012Z,5.50
2023-09-11T01:12:33.848Z,5.30
2023-09-11T01:13:06.490Z,6.10
2023-09-11T01:13:39.175Z,6.10
2023-09-11T01:14:11.858Z,5.70
2023-09-11T01:14:44.548Z,5.70
2023-09-11T01:15:17.221Z,5.90
2023-09-11T01:15:49.895Z,5.80
2023-09-11T01:16:22.629Z,5.90
2023-09-11T01:16:55.283Z,6.20
2023-09-11T01:17:28.009Z,6.10
2023-09-11T01:18:00.768Z,5.50
2023-09-11T01:18:33.519Z,5.70
2023-09-11T01:19:06.157Z,5.90
2023-09-11T01:19:38.824Z,6.00
2023-09-11T01:20:11.538Z,5.90
2023-09-11T01:20:44.233Z,6.00
2023-09-11T01:21:16.866Z,6.30
2023-09-11T01:21:49.556Z,6.00
2023-09-11T01:22:22.221Z,6.40
2023-09-11T01:22:54.888Z,5.90
2023-09-11T01:23:27.566Z,6.60
2023-09-11T01:24:00.230Z,6.00
2023-09-11T01:24:32.891Z,5.70
2023-09-11T01:25:05.579Z,6.40
2023-09-11T01:25:38.260Z,6.20
2023-09-11T01:26:10.929Z,6.20
2023-09-11T01:26:43.628Z,6.10
2023-09-11T01:27:16.289Z,5.90
2023-09-11T01:27:48.982Z,6.00
2023-09-11T01:28:21.652Z,6.00
2023-09-11T01:28:54.331Z,5.90
2023-09-11T01:29:27.060Z,5.90
2023-09-11T01:29:59.714Z,5.80
2023-09-11T01:30:32.409Z,5.50
2023-09-11T01:31:05.088Z,5.30
2023-09-11T01:31:37.744Z,5.80
2023-09-11T01:32:10.474Z,6.30
2023-09-11T01:32:43.326Z,5.30
2023-09-11T01:33:16.144Z,5.50
2023-09-11T01:33:48.913Z,6.20
2023-09-11T01:34:21.598Z,5.60
2023-09-11T01:34:54.276Z,5.70
2023-09-11T01:35:27.002Z,6.00
2023-09-11T01:35:59.674Z,6.10
2023-09-11T01:36:32.340Z,5.90
2023-09-11T01:37:04.997Z,5.80
2023-09-11T01:37:37.678Z,6.10
2023-09-11T01:38:10.366Z,5.80
2023-09-11T01:38:43.360Z,6.10
2023-09-11T01:39:09.721Z,6.20
2023-09-11T01:39:42.376Z,5.80
2023-09-11T01:40:15.043Z,6.00
2023-09-11T01:40:47.711Z,5.90
2023-09-11T01:41:20.411Z,5.90
2023-09-11T01:41:53.079Z,6.10
2023-09-11T01:42:25.737Z,5.90
2023-09-11T01:42:58.410Z,5.60
2023-09-11T01:43:31.109Z,6.00
2023-09-11T01:44:03.774Z,5.70
2023-09-11T01:44:36.491Z,5.70
2023-09-11T01:45:09.167Z,5.60
2023-09-11T01:45:41.849Z,5.30
2023-09-11T01:46:14.615Z,5.50
2023-09-11T01:46:47.280Z,5.60
2023-09-11T01:47:20.001Z,5.30
2023-09-11T01:47:52.798Z,5.40
2023-09-11T01:48:25.682Z,5.70
2023-09-11T01:48:58.357Z,5.30
2023-09-11T01:49:31.054Z,5.40
2023-09-11T01:50:03.726Z,5.40
2023-09-11T01:50:36.485Z,5.50
2023-09-11T01:51:09.196Z,5.50
2023-09-11T01:51:41.872Z,5.60
2023-09-11T01:52:14.537Z,5.50
2023-09-11T01:52:47.197Z,5.50
2023-09-11T01:53:19.886Z,5.70
2023-09-11T01:53:52.618Z,5.40
2023-09-11T01:54:25.269Z,5.60
2023-09-11T01:54:57.941Z,5.50
2023-09-11T01:55:30.621Z,5.50
2023-09-11T01:56:03.276Z,5.80
2023-09-11T01:56:35.971Z,5.60
2023-09-11T01:57:08.642Z,5.50
2023-09-11T01:57:41.303Z,5.40
2023-09-11T01:58:13.965Z,5.40
2023-09-11T01:58:46.642Z,5.30
2023-09-11T01:59:19.427Z,5.50
2023-09-11T01:59:52.150Z,5.40
2023-09-11T02:00:24.800Z,5.50
2023-09-11T02:00:57.472Z,5.50
2023-09-11T02:01:30.185Z,5.20
2023-09-11T02:02:02.839Z,5.40
2023-09-11T02:02:35.661Z,5.50
2023-09-11T02:03:08.500Z,5.30
2023-09-11T02:03:41.339Z,5.40
2023-09-11T02:04:14.232Z,5.80
2023-09-11T02:04:46.955Z,5.40
2023-09-11T02:05:19.652Z,5.60
2023-09-11T02:05:52.354Z,5.70
2023-09-11T02:06:25.055Z,5.20
2023-09-11T02:06:57.730Z,5.20
2023-09-11T02:07:30.424Z,5.50
2023-09-11T02:08:03.117Z,5.40
2023-09-11T02:08:35.778Z,5.70
2023-09-11T02:09:08.476Z,5.10
2023-09-11T02:09:41.179Z,5.30
2023-09-11T02:10:13.842Z,5.50
2023-09-11T02:10:46.501Z,5.50
2023-09-11T02:11:19.284Z,5.60
2023-09-11T02:11:52.169Z,5.10
2023-09-11T02:12:24.821Z,5.30
2023-09-11T02:12:57.491Z,5.10
2023-09-11T02:13:30.154Z,5.10
2023-09-11T02:14:02.821Z,5.50
2023-09-11T02:14:35.520Z,5.20
2023-09-11T02:15:08.188Z,5.40
2023-09-11T02:15:40.900Z,5.60
2023-09-11T02:16:13.583Z,5.30
2023-09-11T02:16:46.283Z,5.50
2023-09-11T02:17:18.979Z,5.30
2023-09-11T02:17:50.125Z,5.30
2023-09-11T02:18:22.843Z,5.70
2023-09-11T02:18:55.505Z,5.00
2023-09-11T02:19:28.178Z,5.00
2023-09-11T02:20:00.915Z,5.40
2023-09-11T02:20:33.596Z,5.20
2023-09-11T02:21:06.274Z,5.70
2023-09-11T02:21:38.915Z,5.60
2023-09-11T02:22:11.594Z,5.50
2023-09-11T02:22:44.261Z,5.10
2023-09-11T02:23:16.933Z,5.80
2023-09-11T02:23:49.615Z,5.50
2023-09-11T02:24:22.272Z,5.50
2023-09-11T02:24:54.942Z,5.80
2023-09-11T02:25:27.635Z,5.70
2023-09-11T02:26:00.297Z,5.30
2023-09-11T02:26:33.012Z,5.60
2023-09-11T02:27:05.702Z,5.80
2023-09-11T02:27:38.378Z,5.50
2023-09-11T02:28:11.049Z,5.70
2023-09-11T02:28:43.770Z,5.90
2023-09-11T02:29:16.424Z,5.30
2023-09-11T02:29:49.113Z,5.60
2023-09-11T02:30:21.791Z,5.20
2023-09-11T02:30:54.474Z,5.20
2023-09-11T02:31:27.171Z,5.30
2023-09-11T02:31:59.853Z,5.20
2023-09-11T02:32:32.591Z,5.10
2023-09-11T02:33:05.355Z,5.20
2023-09-11T02:33:38.045Z,5.00
2023-09-11T02:34:10.702Z,5.30
2023-09-11T02:34:43.368Z,5.50
2023-09-11T02:35:16.061Z,5.50
2023-09-11T02:35:48.751Z,5.40
2023-09-11T02:36:21.417Z,5.50
2023-09-11T02:36:54.137Z,5.80
2023-09-11T02:37:26.795Z,5.40
2023-09-11T02:37:59.462Z,5.40
2023-09-11T02:38:32.175Z,5.40
2023-09-11T02:39:04.917Z,5.70
2023-09-11T02:39:37.684Z,5.50
2023-09-11T02:40:10.357Z,5.70
2023-09-11T02:40:43.685Z,6.00
2023-09-11T02:41:11.038Z,5.90
2023-09-11T02:41:43.746Z,6.10
2023-09-11T02:42:16.400Z,5.90
2023-09-11T02:42:49.072Z,5.90
2023-09-11T02:43:21.757Z,6.40
2023-09-11T02:43:54.494Z,6.30
2023-09-11T02:44:27.274Z,5.90
2023-09-11T02:45:00.193Z,5.90
2023-09-11T02:45:26.493Z,5.50
2023-09-11T02:45:59.192Z,6.10
2023-09-11T02:46:31.878Z,6.10
2023-09-11T02:47:04.539Z,6.20
2023-09-11T02:47:37.285Z,6.00
2023-09-11T02:48:10.067Z,6.00
2023-09-11T02:48:43.024Z,5.50
2023-09-11T02:49:09.502Z,6.10
2023-09-11T02:49:42.189Z,6.50
2023-09-11T02:50:14.857Z,5.70
2023-09-11T02:50:47.579Z,6.00
2023-09-11T02:51:20.396Z,6.20
2023-09-11T02:51:53.098Z,6.00
2023-09-11T02:52:25.822Z,6.10
2023-09-11T02:52:58.496Z,5.90
2023-09-11T02:53:31.188Z,6.20
2023-09-11T02:54:03.855Z,6.00
2023-09-11T02:54:36.525Z,6.10
2023-09-11T02:55:09.518Z,6.70
2023-09-11T02:55:42.321Z,6.30
2023-09-11T02:56:15.017Z,6.20
2023-09-11T02:56:47.708Z,6.30
2023-09-11T02:57:20.369Z,6.40
2023-09-11T02:57:53.031Z,6.60
2023-09-11T02:58:25.690Z,6.50
2023-09-11T02:58:58.362Z,6.40
2023-09-11T02:59:31.063Z,6.10
2023-09-11T03:00:03.728Z,5.90
2023-09-11T03:00:36.400Z,6.00
2023-09-11T03:01:09.143Z,6.20
2023-09-11T03:01:41.947Z,6.00
2023-09-11T03:02:14.626Z,5.70
2023-09-11T03:02:47.311Z,5.80
2023-09-11T03:03:20.087Z,5.70
2023-09-11T03:03:52.771Z,5.90
2023-09-11T03:04:25.446Z,5.60
2023-09-11T03:04:58.220Z,6.00
2023-09-11T03:05:30.972Z,5.80
2023-09-11T03:06:03.745Z,6.20
2023-09-11T03:06:36.427Z,5.70
2023-09-11T03:07:09.122Z,5.70
2023-09-11T03:07:41.762Z,5.80
2023-09-11T03:08:14.430Z,5.70
2023-09-11T03:08:47.158Z,5.20
2023-09-11T03:09:19.856Z,5.50
2023-09-11T03:09:52.507Z,5.30
2023-09-11T03:10:25.222Z,6.00
2023-09-11T03:10:57.922Z,5.70
2023-09-11T03:11:30.656Z,5.30
2023-09-11T03:12:03.317Z,5.90
2023-09-11T03:12:35.993Z,5.60
2023-09-11T03:13:08.683Z,5.60
2023-09-11T03:13:41.330Z,5.50
2023-09-11T03:14:14.001Z,5.60
2023-09-11T03:14:46.688Z,5.20
2023-09-11T03:15:19.374Z,5.30
2023-09-11T03:15:52.075Z,5.60
2023-09-11T03:16:24.735Z,5.30
2023-09-11T03:16:57.413Z,5.40
2023-09-11T03:17:30.166Z,5.10
2023-09-11T03:18:03.010Z,5.50
2023-09-11T03:18:35.770Z,5.30
2023-09-11T03:19:08.529Z,5.20
2023-09-11T03:19:41.196Z,5.30
2023-09-11T03:20:13.873Z,5.60
2023-09-11T03:20:46.625Z,5.50
2023-09-11T03:21:19.301Z,5.50
2023-09-11T03:21:51.974Z,5.20
2023-09-11T03:22:24.661Z,5.50
2023-09-11T03:22:57.315Z,5.20
2023-09-11T03:23:29.991Z,5.60
2023-09-11T03:24:02.688Z,5.40
2023-09-11T03:24:35.340Z,5.20
2023-09-11T03:25:08.019Z,5.40
2023-09-11T03:25:40.693Z,5.50
2023-09-11T03:26:13.370Z,5.10
2023-09-11T03:26:46.051Z,5.30
2023-09-11T03:27:18.713Z,5.70
2023-09-11T03:27:51.385Z,5.70
2023-09-11T03:28:24.048Z,5.50
2023-09-11T03:28:56.718Z,5.60
2023-09-11T03:29:29.437Z,5.20
2023-09-11T03:30:02.194Z,5.60
2023-09-11T03:30:33.212Z,5.70
2023-09-11T03:31:05.868Z,5.40
2023-09-11T03:31:38.551Z,5.80
2023-09-11T03:32:11.231Z,6.00
2023-09-11T03:32:43.993Z,5.80
2023-09-11T03:33:16.813Z,6.00
2023-09-11T03:33:49.738Z,5.90
2023-09-11T03:34:22.496Z,5.90
2023-09-11T03:34:55.162Z,5.80
2023-09-11T03:35:27.910Z,6.00
2023-09-11T03:36:00.778Z,6.10
2023-09-11T03:36:33.506Z,5.90
2023-09-11T03:37:06.177Z,6.20
2023-09-11T03:37:38.870Z,6.00
2023-09-11T03:38:11.518Z,6.00
2023-09-11T03:38:44.461Z,6.00
2023-09-11T03:39:10.740Z,6.00
2023-09-11T03:39:43.430Z,6.10
2023-09-11T03:40:16.105Z,6.40
2023-09-11T03:40:48.766Z,6.10
2023-09-11T03:41:21.499Z,6.30
2023-09-11T03:41:54.275Z,6.30
2023-09-11T03:42:26.940Z,6.30
2023-09-11T03:42:59.613Z,6.70
2023-09-11T03:43:32.290Z,6.30
2023-09-11T03:44:04.968Z,6.30
2023-09-11T03:44:37.693Z,6.00
2023-09-11T03:45:10.372Z,5.70
2023-09-11T03:45:43.042Z,5.90
2023-09-11T03:46:15.762Z,6.00
2023-09-11T03:46:48.444Z,6.30
2023-09-11T03:47:21.246Z,6.20
2023-09-11T03:47:54.038Z,6.10
2023-09-11T03:48:26.779Z,6.60
2023-09-11T03:48:59.463Z,6.30
2023-09-11T03:49:32.150Z,5.90
2023-09-11T03:50:04.807Z,6.20
2023-09-11T03:50:37.518Z,6.10
2023-09-11T03:51:08.605Z,6.40
2023-09-11T03:51:41.303Z,6.10
2023-09-11T03:52:13.961Z,6.00
2023-09-11T03:52:46.652Z,6.00
2023-09-11T03:53:19.318Z,6.10
2023-09-11T03:53:52.021Z,6.00
2023-09-11T03:54:24.685Z,6.20
2023-09-11T03:54:57.345Z,6.80
2023-09-11T03:55:28.443Z,6.40
2023-09-11T03:56:01.132Z,6.50
2023-09-11T03:56:33.871Z,6.80
2023-09-11T03:57:06.670Z,6.40
2023-09-11T03:57:39.543Z,7.10
2023-09-11T03:58:12.281Z,6.40
2023-09-11T03:58:44.967Z,6.70
2023-09-11T03:59:17.626Z,6.50
2023-09-11T03:59:50.320Z,6.10
2023-09-11T04:00:23.051Z,6.80
2023-09-11T04:00:55.777Z,7.50
2023-09-11T04:01:28.556Z,6.90
2023-09-11T04:02:01.212Z,6.40
2023-09-11T04:02:33.953Z,6.50
2023-09-11T04:03:06.761Z,6.90
2023-09-11T04:03:39.763Z,6.60
2023-09-11T04:04:12.620Z,6.30
2023-09-11T04:04:45.429Z,6.00
2023-09-11T04:05:18.149Z,6.60
2023-09-11T04:05:50.837Z,6.50
2023-09-11T04:06:23.499Z,6.30
2023-09-11T04:06:56.176Z,6.70
2023-09-11T04:07:28.842Z,6.30
2023-09-11T04:08:01.545Z,6.30
2023-09-11T04:08:34.224Z,6.10
2023-09-11T04:09:06.883Z,6.30
2023-09-11T04:09:39.536Z,6.40
2023-09-11T04:10:12.213Z,7.30
2023-09-11T04:10:44.886Z,6.80
2023-09-11T04:11:17.549Z,6.60
2023-09-11T04:11:50.243Z,6.60
2023-09-11T04:12:22.910Z,6.10
2023-09-11T04:12:55.577Z,6.50
2023-09-11T04:13:28.385Z,6.30
2023-09-11T04:14:01.057Z,6.60
2023-09-11T04:14:33.763Z,5.90
2023-09-11T04:15:06.491Z,6.20
2023-09-11T04:15:39.146Z,6.10
2023-09-11T04:16:11.855Z,6.20
2023-09-11T04:16:44.640Z,6.10
2023-09-11T04:17:17.359Z,6.20
2023-09-11T04:17:50.160Z,6.20
2023-09-11T04:18:22.997Z,6.30
2023-09-11T04:18:55.767Z,6.30
2023-09-11T04:19:28.450Z,6.30
2023-09-11T04:20:01.138Z,6.30
2023-09-11T04:20:33.813Z,6.90
2023-09-11T04:21:06.465Z,6.90
2023-09-11T04:21:39.142Z,7.30
2023-09-11T04:22:11.847Z,7.30
2023-09-11T04:22:44.498Z,6.40
2023-09-11T04:23:17.197Z,6.60
2023-09-11T04:23:49.922Z,6.50
2023-09-11T04:24:22.596Z,6.60
2023-09-11T04:24:55.256Z,6.00
2023-09-11T04:25:27.934Z,6.70
2023-09-11T04:26:00.610Z,6.70
2023-09-11T04:26:33.284Z,6.50
2023-09-11T04:27:06.020Z,6.70
2023-09-11T04:27:38.715Z,6.50
2023-09-11T04:28:11.380Z,6.70
2023-09-11T04:28:44.268Z,6.60
2023-09-11T04:29:16.972Z,7.00
2023-09-11T04:29:49.677Z,7.00
2023-09-11T04:30:22.323Z,6.60
2023-09-11T04:30:55.049Z,6.60
2023-09-11T04:31:27.742Z,6.50
2023-09-11T04:32:00.453Z,6.90
2023-09-11T04:32:33.265Z,6.90
2023-09-11T04:33:06.029Z,7.30
2023-09-11T04:33:38.804Z,7.10
2023-09-11T04:34:11.460Z,6.90
2023-09-11T04:34:44.140Z,7.20
2023-09-11T04:35:16.816Z,7.10
2023-09-11T04:35:49.549Z,7.00
2023-09-11T04:36:22.276Z,7.20
2023-09-11T04:36:54.956Z,7.40
2023-09-11T04:37:27.634Z,7.50
2023-09-11T04:38:00.303Z,7.10
2023-09-11T04:38:33.033Z,7.10
2023-09-11T04:39:05.792Z,7.40
2023-09-11T04:39:38.454Z,7.10
2023-09-11T04:40:11.119Z,7.50
2023-09-11T04:40:43.791Z,7.90
2023-09-11T04:41:16.480Z,6.80
2023-09-11T04:41:49.174Z,7.00
2023-09-11T04:42:21.849Z,7.30
2023-09-11T04:42:54.524Z,7.00
2023-09-11T04:43:27.820Z,7.60
2023-09-11T04:43:53.987Z,7.30
2023-09-11T04:44:26.652Z,7.60
2023-09-11T04:44:59.356Z,7.70
2023-09-11T04:45:32.083Z,7.50
2023-09-11T04:46:04.763Z,7.10
2023-09-11T04:46:37.482Z,7.50
2023-09-11T04:47:10.165Z,7.00
2023-09-11T04:47:42.963Z,7.40
2023-09-11T04:48:15.806Z,7.30
2023-09-11T04:48:48.594Z,7.50
2023-09-11T04:49:21.369Z,6.90
2023-09-11T04:49:54.029Z,7.20
2023-09-11T04:50:26.727Z,7.00
2023-09-11T04:50:59.465Z,7.00
2023-09-11T04:51:32.144Z,6.80
2023-09-11T04:52:04.824Z,6.90
2023-09-11T04:52:37.488Z,7.00
2023-09-11T04:53:10.180Z,7.10
2023-09-11T04:53:42.916Z,7.10
2023-09-11T04:54:15.623Z,6.80
2023-09-11T04:54:48.283Z,6.80
2023-09-11T04:55:21.180Z,7.50
2023-09-11T04:55:53.847Z,7.50
2023-09-11T04:56:26.549Z,7.30
2023-09-11T04:56:59.263Z,7.40
2023-09-11T04:57:32.012Z,7.60
2023-09-11T04:58:04.673Z,7.60
2023-09-11T04:58:37.351Z,7.60
2023-09-11T04:59:10.052Z,7.30
2023-09-11T04:59:44.000Z,7.90
2023-09-11T05:00:11.313Z,8.10
2023-09-11T05:00:43.978Z,7.90
2023-09-11T05:01:16.644Z,8.40
2023-09-11T05:01:49.343Z,8.10
2023-09-11T05:02:22.030Z,7.90
2023-09-11T05:02:54.787Z,8.50
2023-09-11T05:03:27.712Z,8.20
2023-09-11T05:03:54.356Z,8.60
2023-09-11T05:04:27.243Z,8.30
2023-09-11T05:04:59.915Z,7.90
2023-09-11T05:05:32.630Z,7.70
2023-09-11T05:06:05.307Z,7.80
2023-09-11T05:06:37.974Z,7.60
2023-09-11T05:07:10.650Z,8.30
2023-09-11T05:07:43.322Z,8.20
2023-09-11T05:08:15.995Z,7.70
2023-09-11T05:09:21.113Z,8.00
2023-09-11T05:09:47.527Z,7.30
2023-09-11T05:10:20.165Z,7.40
2023-09-11T05:10:52.842Z,7.10
2023-09-11T05:11:25.573Z,7.50
2023-09-11T05:11:58.353Z,7.50
2023-09-11T05:12:31.055Z,7.70
2023-09-11T05:13:03.725Z,7.80
2023-09-11T05:13:36.388Z,7.80
2023-09-11T05:14:09.057Z,7.90
2023-09-11T05:14:44.477Z,8.10
2023-09-11T05:15:11.803Z,7.90
2023-09-11T05:15:44.454Z,7.70
2023-09-11T05:16:17.125Z,7.90
2023-09-11T05:16:49.791Z,8.20
2023-09-11T05:17:22.475Z,8.80
2023-09-11T05:17:55.280Z,8.60
2023-09-11T05:18:28.156Z,8.10
2023-09-11T05:19:00.884Z,8.20
2023-09-11T05:19:33.547Z,8.30
2023-09-11T05:20:06.212Z,8.60
2023-09-11T05:20:38.938Z,8.90
2023-09-11T05:21:11.608Z,8.50
2023-09-11T05:21:44.298Z,8.30
2023-09-11T05:22:16.965Z,8.50
2023-09-11T05:22:49.626Z,8.80
2023-09-11T05:23:22.304Z,8.90
2023-09-11T05:23:55.083Z,8.70
2023-09-11T05:24:27.727Z,8.60
2023-09-11T05:25:00.415Z,8.80
2023-09-11T05:25:33.064Z,8.50
2023-09-11T05:26:05.737Z,8.90
2023-09-11T05:26:38.436Z,9.00
2023-09-11T05:27:11.138Z,8.90
2023-09-11T05:27:43.832Z,8.60
2023-09-11T05:28:16.495Z,9.00
2023-09-11T05:28:49.164Z,8.60
2023-09-11T05:29:21.861Z,8.80
2023-09-11T05:29:54.582Z,8.60
2023-09-11T05:30:27.281Z,8.70
2023-09-11T05:31:00.051Z,9.10
2023-09-11T05:31:32.742Z,9.50
2023-09-11T05:32:05.444Z,9.40
2023-09-11T05:32:38.200Z,9.50
2023-09-11T05:33:10.948Z,9.50
2023-09-11T05:33:43.798Z,9.30
2023-09-11T05:34:14.726Z,9.50
2023-09-11T05:34:47.402Z,9.80
2023-09-11T05:35:20.065Z,9.70
2023-09-11T05:35:52.752Z,9.60
2023-09-11T05:36:25.451Z,9.70
2023-09-11T05:36:58.120Z,9.80
2023-09-11T05:37:30.800Z,9.50
2023-09-11T05:38:03.478Z,9.20
2023-09-11T05:38:36.275Z,9.70
2023-09-11T05:39:09.019Z,9.00
2023-09-11T05:39:41.685Z,9.30
2023-09-11T05:40:14.355Z,9.40
2023-09-11T05:40:47.022Z,9.30
2023-09-11T05:41:19.689Z,9.80
2023-09-11T05:41:52.416Z,9.50
2023-09-11T05:42:25.082Z,8.90
2023-09-11T05:42:57.753Z,9.20
2023-09-11T05:43:30.446Z,9.50
2023-09-11T05:44:03.152Z,8.90
2023-09-11T05:44:35.873Z,9.20
2023-09-11T05:45:08.583Z,9.00
2023-09-11T05:45:41.304Z,9.70
2023-09-11T05:46:14.026Z,9.80
2023-09-11T05:46:46.670Z,9.70
2023-09-11T05:47:19.355Z,9.70
2023-09-11T05:47:52.088Z,9.40
2023-09-11T05:48:27.039Z,10.00
2023-09-11T05:48:53.761Z,10.20
2023-09-11T05:49:26.514Z,9.70
2023-09-11T05:49:59.190Z,10.20
2023-09-11T05:50:31.868Z,9.80
2023-09-11T05:51:04.609Z,9.30
2023-09-11T05:51:37.285Z,9.70
2023-09-11T05:52:09.935Z,9.90
2023-09-11T05:52:42.618Z,10.30
2023-09-11T05:53:15.285Z,10.60
2023-09-11T05:53:47.987Z,10.70
2023-09-11T05:54:20.665Z,11.20
2023-09-11T05:54:53.323Z,10.50
2023-09-11T05:55:26.001Z,10.70
2023-09-11T05:55:59.327Z,10.70
2023-09-11T05:56:25.718Z,10.50
2023-09-11T05:56:58.397Z,10.60
2023-09-11T05:57:31.101Z,10.40
2023-09-11T05:58:03.771Z,10.60
2023-09-11T05:58:36.489Z,11.00
2023-09-11T05:59:09.138Z,10.70
2023-09-11T05:59:41.842Z,10.30
2023-09-11T06:00:14.521Z,9.70
2023-09-11T06:00:47.288Z,10.50
2023-09-11T06:01:19.986Z,10.90
2023-09-11T06:01:52.781Z,11.20
2023-09-11T06:02:25.457Z,11.20
2023-09-11T06:02:58.260Z,10.60
2023-09-11T06:03:29.348Z,11.70
2023-09-11T06:04:02.242Z,11.40
2023-09-11T06:04:35.042Z,11.90
2023-09-11T06:05:07.716Z,11.80
2023-09-11T06:05:40.416Z,12.20
2023-09-11T06:06:13.083Z,12.10
2023-09-11T06:06:45.769Z,11.30
2023-09-11T06:07:18.442Z,11.80
2023-09-11T06:07:51.118Z,12.10
2023-09-11T06:08:23.798Z,12.60
2023-09-11T06:08:56.489Z,12.30
2023-09-11T06:09:29.239Z,12.90
2023-09-11T06:10:01.882Z,12.80
2023-09-11T06:10:34.564Z,12.50
2023-09-11T06:11:07.225Z,12.30
2023-09-11T06:11:39.932Z,13.00
2023-09-11T06:12:12.582Z,13.00
2023-09-11T06:12:45.278Z,12.90
2023-09-11T06:13:17.956Z,12.70
2023-09-11T06:13:50.842Z,12.20
2023-09-11T06:14:23.512Z,12.10
2023-09-11T06:14:56.229Z,12.30
2023-09-11T06:15:28.877Z,12.50
2023-09-11T06:16:01.734Z,12.50
2023-09-11T06:16:34.416Z,12.50
2023-09-11T06:17:07.076Z,12.70
2023-09-11T06:17:44.835Z,12.50
2023-09-11T06:18:11.925Z,12.20
2023-09-11T06:18:38.187Z,12.50
2023-09-11T06:19:10.935Z,12.90
2023-09-11T06:19:43.710Z,13.30
2023-09-11T06:20:16.437Z,13.20
2023-09-11T06:20:49.243Z,13.10
2023-09-11T06:21:22.090Z,13.10
2023-09-11T06:21:54.888Z,12.80
2023-09-11T06:22:27.586Z,13.60
2023-09-11T06:23:00.254Z,13.00
2023-09-11T06:23:32.967Z,12.90
2023-09-11T06:24:05.698Z,12.80
2023-09-11T06:24:39.424Z,12.90
2023-09-11T06:25:05.579Z,13.40
2023-09-11T06:25:38.244Z,13.00
2023-09-11T06:26:10.928Z,13.60
2023-09-11T06:26:43.630Z,13.10
2023-09-11T06:27:16.291Z,13.40
2023-09-11T06:27:48.978Z,13.10
2023-09-11T06:28:21.664Z,13.40
2023-09-11T06:28:54.329Z,13.30
2023-09-11T06:29:27.021Z,13.00
2023-09-11T06:29:59.700Z,13.50
2023-09-11T06:30:32.367Z,14.40
2023-09-11T06:31:05.076Z,13.70
2023-09-11T06:31:37.851Z,13.80
2023-09-11T06:32:10.519Z,13.90
2023-09-11T06:32:43.366Z,14.10
2023-09-11T06:33:16.104Z,13.60
2023-09-11T06:33:48.872Z,13.50
2023-09-11T06:34:21.570Z,13.80
2023-09-11T06:34:52.670Z,13.70
2023-09-11T06:35:25.343Z,13.50
2023-09-11T06:35:58.071Z,13.10
2023-09-11T06:36:30.733Z,14.40
2023-09-11T06:37:03.410Z,13.80
2023-09-11T06:37:36.105Z,13.90
2023-09-11T06:38:08.828Z,14.20
2023-09-11T06:38:41.807Z,14.00
2023-09-11T06:39:08.240Z,14.40
2023-09-11T06:39:40.906Z,14.00
2023-09-11T06:40:13.660Z,13.80
2023-09-11T06:40:46.316Z,13.80
2023-09-11T06:41:18.987Z,13.30
2023-09-11T06:41:51.689Z,13.60
2023-09-11T06:42:24.413Z,13.40
2023-09-11T06:42:57.086Z,13.70
2023-09-11T06:43:29.872Z,14.40
2023-09-11T06:44:02.562Z,14.00
2023-09-11T06:44:35.289Z,14.50
2023-09-11T06:45:08.083Z,14.00
2023-09-11T06:45:40.829Z,14.50
2023-09-11T06:46:13.516Z,14.30
2023-09-11T06:46:46.171Z,14.40
2023-09-11T06:47:18.858Z,14.60
2023-09-11T06:47:51.562Z,14.60
2023-09-11T06:48:25.913Z,14.80
2023-09-11T06:48:52.694Z,14.50
2023-09-11T06:49:25.399Z,14.70
2023-09-11T06:49:58.053Z,15.10
2023-09-11T06:50:29.184Z,14.70
2023-09-11T06:51:01.870Z,14.80
2023-09-11T06:51:34.549Z,14.80
2023-09-11T06:52:07.346Z,14.30
2023-09-11T06:52:40.212Z,14.30
2023-09-11T06:53:12.883Z,14.80
2023-09-11T06:53:45.602Z,15.00
2023-09-11T06:54:18.254Z,15.30
2023-09-11T06:54:50.942Z,14.70
2023-09-11T06:55:23.720Z,14.60
2023-09-11T06:55:56.383Z,14.40
2023-09-11T06:56:29.063Z,14.50
2023-09-11T06:57:01.771Z,14.50
2023-09-11T06:57:34.491Z,14.30
2023-09-11T06:58:07.271Z,14.40
2023-09-11T06:58:40.381Z,15.30
2023-09-11T06:59:06.737Z,14.60
2023-09-11T06:59:39.503Z,14.20
2023-09-11T07:00:16.131Z,13.90
2023-09-11T07:00:42.979Z,13.90
2023-09-11T07:01:15.665Z,13.90
2023-09-11T07:01:48.374Z,14.80
2023-09-11T07:02:21.115Z,13.90
2023-09-11T07:02:53.847Z,14.10
2023-09-11T07:03:26.711Z,14.10
2023-09-11T07:03:59.566Z,13.50
2023-09-11T07:04:32.412Z,14.60
2023-09-11T07:05:05.154Z,14.00
2023-09-11T07:05:37.909Z,13.90
2023-09-11T07:06:10.671Z,13.90
2023-09-11T07:06:43.374Z,13.70
2023-09-11T07:07:14.457Z,14.50
2023-09-11T07:07:47.145Z,18.40
2023-09-11T07:08:19.822Z,17.20
2023-09-11T07:08:52.526Z,15.00
2023-09-11T07:09:25.228Z,15.00
2023-09-11T07:09:57.908Z,14.70
2023-09-11T07:10:40.944Z,13.80
2023-09-11T07:11:02.665Z,14.30